aviador You're here:

KSSC Decoded Metar

SUMTER in SC, USA
Report Time2018-05-26 07:56:00
UTC Time2018-05-26 08:07:28
Flight Rules lifr LIFR
WindCalm
Visibility9999 m
Phenomena:N/A
Clouds:Broken 003 Hf
Overcast 016 Hf
Expected CloudBase > 400 ft AGL from Temp-Dew spread
Ceiling300 ft
Temp21°C (ISA +6)
Dew Point20°C (94% RH)
QNH1015 hPa
Density Alt1,240 ft
Elevation243 ft
Report Wrong Elevation
Raw Report
KSSC 260756Z AUTO 00000KT 7SM BKN003 OVC016 21/20 A2996 RMK AO2
SLP145 T02070204=

Extra information for KSSC:More info

Metar Taf Metar & Taf Last 4 Metars F.Rules Stats Wind Profile Meteogram Temp Stats Airport Information Weather charts Add Link Nearby VenuesMetar ALERT Operation Metar Decoded Social comments

AIRNAV info for KSSC